Time;durP1;ratioP1;P1;durP2;ratioP2;P2;SDS_P1;SDS_P2;PMS_P1;PMS_P2;Temp;Humidity;BMP_temperature;BMP_pressure;BME280_temperature;BME280_humidity;BME280_pressure;Samples;Min_cycle;Max_cycle;Signal;HPM_P1;HPM_P2
2023/04/10 04:31:17;;;;;;;8.75;5.13;;;14.20;73.20;;;;;;5514621;23;20059;-77
2023/04/10 04:33:42;;;;;;;7.18;4.50;;;14.20;73.20;;;;;;4957666;29;20031;-77
2023/04/10 04:36:08;;;;;;;9.27;5.30;;;14.20;73.20;;;;;;4947942;29;20031;-77
2023/04/10 04:38:34;;;;;;;8.98;4.97;;;14.20;73.50;;;;;;4941377;29;20043;-77
2023/04/10 04:40:59;;;;;;;10.45;4.95;;;14.20;73.90;;;;;;4941218;29;20048;-76
2023/04/10 04:43:25;;;;;;;8.10;5.32;;;14.20;74.20;;;;;;4941016;29;20023;-77
2023/04/10 04:45:50;;;;;;;8.80;5.18;;;14.20;74.00;;;;;;4941024;29;20032;-76
2023/04/10 04:48:16;;;;;;;8.93;4.60;;;14.30;73.90;;;;;;4940877;29;20032;-76
2023/04/10 04:50:42;;;;;;;6.07;4.68;;;14.20;74.10;;;;;;4940709;29;20098;-76
2023/04/10 04:53:08;;;;;;;11.13;4.82;;;14.20;74.50;;;;;;4941312;29;20032;-76
2023/04/10 04:55:34;;;;;;;10.48;5.28;;;14.10;75.00;;;;;;4941001;29;20015;-77
2023/04/10 04:58:00;;;;;;;11.35;5.78;;;14.00;75.70;;;;;;4940948;29;20205;-77
2023/04/10 05:00:25;;;;;;;9.18;5.68;;;14.00;75.70;;;;;;4939803;28;20419;-76
2023/04/10 05:02:51;;;;;;;7.10;4.65;;;14.00;75.50;;;;;;4958273;28;20060;-76
2023/04/10 05:05:17;;;;;;;7.60;5.10;;;14.10;75.30;;;;;;4967636;28;20093;-76
2023/04/10 05:07:42;;;;;;;11.05;5.70;;;14.00;75.70;;;;;;4973272;28;20026;-75
2023/04/10 05:10:08;;;;;;;7.10;4.55;;;14.10;75.30;;;;;;4954773;28;20050;-75
2023/04/10 05:12:34;;;;;;;12.63;5.45;;;14.00;75.70;;;;;;4977864;28;20038;-76
2023/04/10 05:15:00;;;;;;;8.05;4.30;;;14.10;75.50;;;;;;4979335;28;20019;-76
2023/04/10 05:17:25;;;;;;;7.45;4.55;;;14.00;75.60;;;;;;4958741;28;20401;-76
2023/04/10 05:19:51;;;;;;;8.32;4.78;;;14.00;75.40;;;;;;4956729;28;20542;-76
2023/04/10 05:22:17;;;;;;;8.50;4.65;;;14.00;76.10;;;;;;4970506;28;20043;-76
2023/04/10 05:24:42;;;;;;;7.05;4.85;;;14.00;75.80;;;;;;4941079;29;20054;-75
2023/04/10 05:27:08;;;;;;;10.02;5.45;;;14.10;75.70;;;;;;4939107;29;20070;-76
2023/04/10 05:29:34;;;;;;;8.25;5.35;;;14.20;75.20;;;;;;4940528;29;20404;-76
2023/04/10 05:32:00;;;;;;;7.80;5.50;;;14.20;75.20;;;;;;4940374;29;20063;-77
2023/04/10 05:34:25;;;;;;;7.55;5.03;;;14.20;75.10;;;;;;4956837;29;20555;-76
2023/04/10 05:36:51;;;;;;;8.80;5.50;;;14.30;74.90;;;;;;4951478;29;20024;-76
2023/04/10 05:39:18;;;;;;;11.02;5.68;;;14.30;75.10;;;;;;4958989;29;20545;-76
2023/04/10 05:41:44;;;;;;;12.55;5.97;;;14.30;75.30;;;;;;4958778;29;20138;-76
2023/04/10 05:44:09;;;;;;;10.23;5.00;;;14.30;75.50;;;;;;4958552;29;20143;-76
2023/04/10 05:46:35;;;;;;;11.20;5.22;;;14.30;75.50;;;;;;4947503;29;20087;-76
2023/04/10 05:49:01;;;;;;;8.90;5.60;;;14.20;76.10;;;;;;4940021;29;20487;-76
2023/04/10 05:51:27;;;;;;;10.00;5.60;;;14.20;75.80;;;;;;4958087;29;20108;-76
2023/04/10 05:53:53;;;;;;;10.10;5.93;;;14.20;76.50;;;;;;4945702;29;20459;-78
2023/04/10 05:56:19;;;;;;;9.82;5.07;;;14.20;76.50;;;;;;4940023;29;20058;-76
2023/04/10 05:58:45;;;;;;;10.18;5.40;;;14.20;76.70;;;;;;4939676;29;20024;-78
2023/04/10 06:01:12;;;;;;;11.63;5.28;;;14.20;76.70;;;;;;4939541;29;20091;-77
2023/04/10 06:03:38;;;;;;;6.78;5.30;;;14.30;76.60;;;;;;4949532;29;20015;-78
2023/04/10 06:06:04;;;;;;;11.95;5.40;;;14.30;76.40;;;;;;4958021;29;20034;-81
2023/04/10 06:08:30;;;;;;;9.35;5.78;;;14.40;76.50;;;;;;4959127;28;20023;-81
2023/04/10 06:10:56;;;;;;;7.80;5.18;;;14.40;76.60;;;;;;4953016;28;20031;-78
2023/04/10 06:13:21;;;;;;;12.70;5.45;;;14.40;76.40;;;;;;4959394;28;20081;-83
2023/04/10 06:15:47;;;;;;;8.18;5.40;;;14.40;76.30;;;;;;4952915;29;20032;-79
2023/04/10 06:18:13;;;;;;;9.05;5.43;;;14.40;76.60;;;;;;4951189;29;20031;-79
2023/04/10 06:20:38;;;;;;;8.65;5.65;;;14.30;77.10;;;;;;4958821;29;20545;-78
2023/04/10 06:23:04;;;;;;;7.88;4.75;;;14.30;77.20;;;;;;4944266;29;20036;-82
2023/04/10 06:25:30;;;;;;;7.50;4.57;;;14.30;77.60;;;;;;4939509;29;20499;-79
2023/04/10 06:27:56;;;;;;;8.35;5.20;;;14.30;77.50;;;;;;4939351;29;20035;-80
2023/04/10 06:30:22;;;;;;;10.35;5.45;;;14.30;77.40;;;;;;4939219;29;20091;-78
2023/04/10 06:32:47;;;;;;;9.45;4.53;;;14.40;77.40;;;;;;4941105;29;20086;-78
2023/04/10 06:35:13;;;;;;;8.27;4.82;;;14.40;77.20;;;;;;4957100;28;20062;-79
2023/04/10 06:37:39;;;;;;;9.77;4.88;;;14.40;77.20;;;;;;4958442;29;20443;-76
2023/04/10 06:40:10;;;;;;;10.68;4.95;;;14.40;77.60;;;;;;4949796;29;20037;-78
2023/04/10 06:42:36;;;;;;;9.40;5.00;;;14.40;77.50;;;;;;4938120;29;20407;-81
2023/04/10 06:45:03;;;;;;;9.68;4.82;;;14.40;77.60;;;;;;4940667;29;20058;-81
2023/04/10 06:47:29;;;;;;;8.10;5.05;;;14.50;77.80;;;;;;4937217;29;20576;-80
2023/04/10 06:49:55;;;;;;;9.20;4.82;;;14.40;78.10;;;;;;4937759;29;20027;-85
2023/04/10 06:52:20;;;;;;;8.40;5.13;;;14.40;78.20;;;;;;4939095;29;20078;-85
2023/04/10 06:54:46;;;;;;;7.20;4.32;;;14.40;78.30;;;;;;4939009;29;20020;-83
2023/04/10 06:57:12;;;;;;;9.10;4.90;;;14.30;78.50;;;;;;4938978;29;20038;-82
2023/04/10 06:59:37;;;;;;;9.90;5.03;;;14.30;78.40;;;;;;4939986;29;20034;-79
2023/04/10 07:02:03;;;;;;;9.98;4.93;;;14.30;78.70;;;;;;4972115;28;20066;-79
2023/04/10 07:04:30;;;;;;;7.65;4.68;;;14.30;78.90;;;;;;4955020;29;20050;-79
2023/04/10 07:06:55;;;;;;;12.73;5.43;;;14.30;79.00;;;;;;4958086;29;20027;-80
2023/04/10 07:09:21;;;;;;;8.68;5.32;;;14.30;79.30;;;;;;4936997;29;20055;-80
2023/04/10 07:11:47;;;;;;;13.30;6.15;;;14.30;79.20;;;;;;4965465;28;20065;-80
2023/04/10 07:14:12;;;;;;;10.88;5.00;;;14.30;79.30;;;;;;4951352;29;20034;-79
2023/04/10 07:16:38;;;;;;;9.45;5.13;;;14.30;79.60;;;;;;4954595;29;20031;-79
2023/04/10 07:19:04;;;;;;;10.02;5.30;;;14.30;79.60;;;;;;4954351;29;20015;-79
2023/04/10 07:21:31;;;;;;;8.95;5.32;;;14.40;79.50;;;;;;4939560;29;20533;-79
2023/04/10 07:23:57;;;;;;;8.32;4.47;;;14.40;79.50;;;;;;4939556;29;20109;-79
2023/04/10 07:26:23;;;;;;;8.02;4.75;;;14.40;79.40;;;;;;4953613;29;20039;-80
2023/04/10 07:28:48;;;;;;;12.82;5.03;;;14.40;79.50;;;;;;4954362;29;20027;-79
2023/04/10 07:31:14;;;;;;;10.30;5.20;;;14.40;79.40;;;;;;4956433;29;20107;-79
2023/04/10 07:33:40;;;;;;;7.97;4.25;;;14.50;79.50;;;;;;4939926;29;20051;-79
2023/04/10 07:36:06;;;;;;;9.65;4.93;;;14.50;79.50;;;;;;4937528;29;20091;-83
2023/04/10 07:38:32;;;;;;;9.15;4.95;;;14.50;79.50;;;;;;4940309;29;20460;-79
2023/04/10 07:40:58;;;;;;;8.35;3.67;;;14.50;79.60;;;;;;4956075;29;20027;-79
2023/04/10 07:43:24;;;;;;;6.95;4.38;;;14.60;79.30;;;;;;4963370;28;20082;-79
2023/04/10 07:45:50;;;;;;;14.07;4.13;;;14.60;79.20;;;;;;4954521;28;20122;-79
2023/04/10 07:48:16;;;;;;;8.35;4.28;;;14.70;79.10;;;;;;4953819;29;20067;-79
2023/04/10 07:50:42;;;;;;;8.90;4.10;;;14.70;79.20;;;;;;4956354;29;20023;-80
2023/04/10 07:53:07;;;;;;;8.15;4.53;;;14.70;79.10;;;;;;4931698;29;20039;-80
2023/04/10 07:55:45;;;;;;;10.82;4.53;;;14.70;79.10;;;;;;4956921;29;20027;-80
2023/04/10 07:58:10;;;;;;;9.40;4.47;;;14.80;79.00;;;;;;4940293;29;20034;-80
2023/04/10 08:00:36;;;;;;;7.90;4.50;;;14.80;79.20;;;;;;4949190;29;20028;-81
2023/04/10 08:03:03;;;;;;;9.38;4.60;;;14.70;79.20;;;;;;4936863;29;20039;-80
2023/04/10 08:05:29;;;;;;;11.45;4.95;;;14.70;79.10;;;;;;4939119;29;20130;-80
2023/04/10 08:07:55;;;;;;;6.85;3.95;;;14.80;79.10;;;;;;4953701;29;20051;-81
2023/04/10 08:10:20;;;;;;;6.80;4.50;;;14.70;79.30;;;;;;4959174;28;20035;-80
2023/04/10 08:12:46;;;;;;;11.38;4.82;;;14.80;79.40;;;;;;4934200;29;20111;-80
2023/04/10 08:15:12;;;;;;;9.10;4.70;;;14.80;79.50;;;;;;4948081;29;20403;-80
2023/04/10 08:17:37;;;;;;;10.40;4.13;;;14.80;79.50;;;;;;4948033;29;20507;-80
2023/04/10 08:20:04;;;;;;;8.63;4.88;;;14.80;79.70;;;;;;4953017;29;20060;-80
2023/04/10 08:22:30;;;;;;;8.73;4.88;;;14.80;79.80;;;;;;4936175;29;20427;-81
2023/04/10 08:24:55;;;;;;;7.90;4.32;;;14.80;79.70;;;;;;4951707;29;20097;-80
2023/04/10 08:27:21;;;;;;;7.93;4.13;;;14.80;79.60;;;;;;4957046;29;20031;-81
2023/04/10 08:29:46;;;;;;;8.10;4.07;;;14.90;79.60;;;;;;4939017;29;20139;-82
2023/04/10 08:32:12;;;;;;;6.57;4.00;;;14.80;80.00;;;;;;4940432;29;20050;-82
2023/04/10 08:34:38;;;;;;;5.32;3.42;;;14.90;80.00;;;;;;4950941;29;20491;-82
2023/04/10 08:37:08;;;;;;;8.52;4.18;;;14.80;80.00;;;;;;4936348;29;20035;-81
2023/04/10 08:39:37;;;;;;;9.13;4.70;;;14.90;80.00;;;;;;4945836;29;20031;-82
2023/04/10 08:42:05;;;;;;;7.47;3.78;;;14.90;80.00;;;;;;4952300;29;20035;-79
2023/04/10 08:44:30;;;;;;;7.18;4.13;;;15.00;79.90;;;;;;4956792;29;20032;-79
2023/04/10 08:47:00;;;;;;;10.75;4.40;;;15.20;79.80;;;;;;4939817;28;20526;-80
2023/04/10 08:49:32;;;;;;;9.82;4.53;;;15.10;79.40;;;;;;4937622;29;20032;-80
2023/04/10 08:52:00;;;;;;;9.35;3.88;;;15.20;79.50;;;;;;4937152;29;20023;-80
2023/04/10 08:54:29;;;;;;;7.63;4.07;;;15.20;79.20;;;;;;4936434;29;20035;-80
2023/04/10 08:56:57;;;;;;;6.15;3.75;;;15.20;79.30;;;;;;4939459;29;20055;-82
2023/04/10 08:59:23;;;;;;;9.20;3.28;;;15.40;79.10;;;;;;4953078;29;20103;-83
2023/04/10 09:01:48;;;;;;;7.18;3.53;;;15.40;78.70;;;;;;4939526;29;20028;-84
2023/04/10 09:04:15;;;;;;;9.85;3.60;;;15.50;78.50;;;;;;4955192;29;20019;-78
2023/04/10 09:06:41;;;;;;;6.18;3.75;;;15.60;78.40;;;;;;4960029;29;20107;-82
2023/04/10 09:09:07;;;;;;;7.72;3.95;;;15.60;78.30;;;;;;4958505;29;20055;-85
2023/04/10 09:11:51;;;;;;;6.15;2.75;;;15.60;78.10;;;;;;4950366;29;20114;-78
2023/04/10 09:14:25;;;;;;;5.65;3.60;;;15.70;78.00;;;;;;4959728;29;20114;-77
2023/04/10 09:16:52;;;;;;;6.65;3.65;;;15.70;77.90;;;;;;4958081;29;20518;-77
2023/04/10 09:19:31;;;;;;;9.68;3.53;;;15.80;77.90;;;;;;4957197;29;20431;-77
2023/04/10 09:21:57;;;;;;;6.13;3.40;;;15.80;77.70;;;;;;4957384;29;20023;-77
2023/04/10 09:24:24;;;;;;;7.60;3.28;;;15.80;77.70;;;;;;4931202;29;20043;-77
2023/04/10 09:26:49;;;;;;;5.32;3.15;;;15.80;77.50;;;;;;4951607;29;20023;-77
2023/04/10 09:29:18;;;;;;;6.57;3.03;;;15.80;77.40;;;;;;4951935;29;20045;-77
2023/04/10 09:31:44;;;;;;;6.72;3.10;;;15.90;77.40;;;;;;4955162;29;20043;-78
2023/04/10 09:34:18;;;;;;;7.53;3.42;;;15.90;77.20;;;;;;4959006;29;20503;-78
2023/04/10 09:36:53;;;;;;;5.57;3.03;;;15.90;77.00;;;;;;4941655;29;20086;-78
2023/04/10 09:39:19;;;;;;;5.43;3.45;;;16.00;77.00;;;;;;4942016;29;20036;-78
2023/04/10 09:41:53;;;;;;;8.57;3.03;;;15.90;76.90;;;;;;4941751;29;20027;-78
2023/04/10 09:44:34;;;;;;;7.75;3.10;;;15.80;77.10;;;;;;4957836;29;20028;-78
2023/04/10 09:47:21;;;;;;;9.98;2.95;;;15.80;77.00;;;;;;4953865;28;20039;-78
2023/04/10 09:49:51;;;;;;;6.15;3.33;;;15.90;77.00;;;;;;4958641;29;20035;-78
2023/04/10 09:52:28;;;;;;;6.05;3.13;;;16.00;76.80;;;;;;4956685;29;20031;-78
2023/04/10 09:54:59;;;;;;;8.60;3.38;;;15.90;76.60;;;;;;4957920;29;20035;-79
2023/04/10 09:57:28;;;;;;;5.93;2.58;;;16.00;76.80;;;;;;4950902;29;20027;-79
2023/04/10 09:59:56;;;;;;;6.50;2.88;;;16.00;76.50;;;;;;4938062;29;20116;-79
2023/04/10 10:02:24;;;;;;;7.30;3.35;;;16.10;76.20;;;;;;4953196;29;20031;-79
2023/04/10 10:04:51;;;;;;;7.88;3.00;;;16.10;76.10;;;;;;4957505;29;20677;-79
2023/04/10 10:07:18;;;;;;;6.50;2.63;;;16.00;76.50;;;;;;4963123;28;20041;-79
2023/04/10 10:09:45;;;;;;;7.82;2.95;;;16.10;76.40;;;;;;4956640;28;20067;-79
2023/04/10 10:12:15;;;;;;;6.57;3.05;;;16.10;76.20;;;;;;4956962;29;20027;-79
2023/04/10 10:15:00;;;;;;;7.47;3.10;;;16.10;76.10;;;;;;4958252;28;20034;-78
2023/04/10 10:17:48;;;;;;;5.20;2.65;;;16.10;76.10;;;;;;4947467;29;20495;-81
2023/04/10 10:20:20;;;;;;;8.40;3.17;;;16.10;76.40;;;;;;4952645;29;20039;-78
2023/04/10 10:22:47;;;;;;;4.53;2.30;;;16.10;76.20;;;;;;4950261;28;20058;-79
2023/04/10 10:25:13;;;;;;;11.65;4.07;;;16.20;76.10;;;;;;4951648;28;20036;-79
2023/04/10 10:27:40;;;;;;;8.32;3.05;;;16.10;76.10;;;;;;4954144;29;20115;-79
2023/04/10 10:30:08;;;;;;;8.95;4.45;;;16.10;76.00;;;;;;4939628;29;20045;-80
2023/04/10 10:32:34;;;;;;;8.98;4.05;;;16.20;76.20;;;;;;4948078;29;20487;-76
2023/04/10 10:35:06;;;;;;;9.05;3.92;;;16.20;76.10;;;;;;4954942;29;20043;-79
2023/04/10 10:37:34;;;;;;;6.13;2.90;;;16.20;76.20;;;;;;4952182;29;20041;-78
2023/04/10 10:40:10;;;;;;;7.68;3.33;;;16.20;76.20;;;;;;4963253;28;20022;-80
2023/04/10 10:42:48;;;;;;;17.33;5.28;;;16.30;76.10;;;;;;4946201;28;20034;-77
2023/04/10 10:45:29;;;;;;;9.48;3.55;;;16.30;76.10;;;;;;4954878;28;20035;-77
2023/04/10 10:47:55;;;;;;;7.22;3.50;;;16.30;76.10;;;;;;4949902;29;20070;-75
2023/04/10 10:50:24;;;;;;;3.47;2.22;;;16.30;76.40;;;;;;4952434;29;20027;-79
2023/04/10 10:52:56;;;;;;;106.03;29.80;;;16.30;76.50;;;;;;4954684;29;20035;-78
2023/04/10 10:55:21;;;;;;;5.70;2.85;;;16.30;76.50;;;;;;4940009;29;20415;-77
2023/04/10 10:57:50;;;;;;;4.45;2.72;;;16.20;76.50;;;;;;4952512;29;20039;-76
2023/04/10 11:00:16;;;;;;;3.13;2.13;;;16.20;76.90;;;;;;4957622;29;20031;-76
2023/04/10 11:02:42;;;;;;;2.80;1.55;;;16.20;77.00;;;;;;4931168;29;20039;-77
2023/04/10 11:05:08;;;;;;;2.72;1.80;;;16.30;77.00;;;;;;4939826;29;20035;-76
2023/04/10 11:07:59;;;;;;;2.72;1.63;;;16.30;77.10;;;;;;4934724;29;20082;-76
2023/04/10 11:11:04;;;;;;;3.38;1.60;;;16.30;77.00;;;;;;4957415;29;20042;-76
2023/04/10 11:13:31;;;;;;;2.10;1.20;;;16.30;77.10;;;;;;4938549;29;20082;-75
2023/04/10 11:15:57;;;;;;;3.13;1.27;;;16.20;77.10;;;;;;4952206;28;20031;-77
2023/04/10 11:18:45;;;;;;;2.55;1.20;;;16.30;77.20;;;;;;4940523;29;20035;-80
2023/04/10 11:21:21;;;;;;;1.50;1.17;;;16.30;77.20;;;;;;4949476;28;20035;-75
2023/04/10 11:23:50;;;;;;;2.58;1.02;;;16.30;77.20;;;;;;4938519;29;20039;-76
2023/04/10 11:26:38;;;;;;;2.20;1.63;;;16.30;77.10;;;;;;4940869;29;20015;-78
2023/04/10 11:29:03;;;;;;;3.38;1.80;;;16.40;77.40;;;;;;4953695;29;20031;-78
2023/04/10 11:31:30;;;;;;;1.75;1.20;;;16.50;77.30;;;;;;4941388;28;20043;-77
2023/04/10 11:33:56;;;;;;;3.53;1.20;;;16.60;77.20;;;;;;4951949;29;20415;-78
2023/04/10 11:36:22;;;;;;;2.60;1.20;;;16.60;77.00;;;;;;4947772;29;20012;-78
2023/04/10 11:39:06;;;;;;;2.30;1.17;;;16.40;77.40;;;;;;4955731;29;20055;-78
2023/04/10 11:41:33;;;;;;;2.65;0.98;;;16.40;77.50;;;;;;4949349;29;20027;-78
2023/04/10 11:44:00;;;;;;;2.03;0.77;;;16.40;77.50;;;;;;4957346;29;20474;-78
2023/04/10 11:46:26;;;;;;;1.80;1.13;;;16.50;77.50;;;;;;4951280;29;20273;-78
2023/04/10 11:48:57;;;;;;;2.22;1.27;;;16.50;77.50;;;;;;4940212;29;20032;-78
2023/04/10 11:51:22;;;;;;;1.50;1.00;;;16.70;77.20;;;;;;4960341;28;20581;-78
2023/04/10 11:53:48;;;;;;;1.48;0.80;;;17.00;76.70;;;;;;4965466;28;20019;-77
2023/04/10 11:56:20;;;;;;;1.50;0.88;;;17.30;76.00;;;;;;4946482;28;20087;-77
2023/04/10 11:58:49;;;;;;;1.48;0.80;;;17.40;75.20;;;;;;4944257;28;20046;-78
2023/04/10 12:01:15;;;;;;;2.25;0.80;;;17.30;74.70;;;;;;4964704;28;20031;-77
2023/04/10 12:03:42;;;;;;;2.80;0.60;;;17.50;73.90;;;;;;4963527;28;20540;-77
2023/04/10 12:06:12;;;;;;;1.23;0.68;;;17.70;73.70;;;;;;4964497;28;20028;-77
2023/04/10 12:08:40;;;;;;;1.27;0.63;;;18.00;73.20;;;;;;4962348;28;20479;-77
2023/04/10 12:11:07;;;;;;;0.90;0.50;;;18.20;72.10;;;;;;4961892;28;20032;-78
2023/04/10 12:13:33;;;;;;;1.10;0.75;;;18.30;71.80;;;;;;4942143;29;20039;-78
2023/04/10 12:16:01;;;;;;;1.60;0.82;;;18.40;71.30;;;;;;4955948;28;20086;-77
2023/04/10 12:18:28;;;;;;;1.38;0.60;;;18.10;70.40;;;;;;4940887;29;20055;-78
2023/04/10 12:20:56;;;;;;;2.00;0.63;;;18.00;70.60;;;;;;4953153;29;20040;-78
2023/04/10 12:23:23;;;;;;;1.10;0.50;;;17.90;70.50;;;;;;4922306;29;20110;-78
2023/04/10 12:25:49;;;;;;;1.30;0.75;;;17.80;71.30;;;;;;4947258;29;20028;-77
2023/04/10 12:28:21;;;;;;;1.25;0.85;;;17.70;71.00;;;;;;4938902;29;20230;-78
2023/04/10 12:30:52;;;;;;;2.10;1.05;;;17.70;71.60;;;;;;4955780;29;20048;-77
2023/04/10 12:33:22;;;;;;;1.05;0.52;;;17.70;71.50;;;;;;4938899;29;20059;-77
2023/04/10 12:35:48;;;;;;;2.28;0.98;;;17.80;71.30;;;;;;4959837;29;20022;-77
2023/04/10 12:38:13;;;;;;;1.15;0.70;;;17.70;72.10;;;;;;4942762;29;20035;-78
2023/04/10 12:40:57;;;;;;;1.52;0.60;;;17.60;74.00;;;;;;4959502;29;20023;-78
2023/04/10 12:43:34;;;;;;;2.55;0.60;;;17.60;74.70;;;;;;4948878;29;20031;-78
2023/04/10 12:46:00;;;;;;;0.90;0.57;;;17.80;74.70;;;;;;4959872;29;20027;-77
2023/04/10 12:48:26;;;;;;;1.35;0.68;;;17.90;74.80;;;;;;4941358;29;20040;-78
2023/04/10 12:50:52;;;;;;;2.10;0.70;;;18.10;74.50;;;;;;4959870;29;20392;-78
2023/04/10 12:53:18;;;;;;;2.05;0.70;;;18.10;73.60;;;;;;4959588;29;20114;-77
2023/04/10 12:55:59;;;;;;;1.92;0.73;;;18.10;72.80;;;;;;4950617;29;20490;-78
2023/04/10 12:58:30;;;;;;;1.23;0.70;;;18.30;73.20;;;;;;4940707;29;20055;-78
2023/04/10 13:01:04;;;;;;;2.25;0.77;;;18.30;72.40;;;;;;4940750;29;20092;-77
2023/04/10 13:03:32;;;;;;;1.73;0.60;;;18.20;70.70;;;;;;4941034;29;20051;-78
2023/04/10 13:05:58;;;;;;;1.40;0.60;;;18.00;70.40;;;;;;4939564;29;20127;-78
2023/04/10 13:08:24;;;;;;;3.38;0.88;;;17.90;70.90;;;;;;4945623;29;20059;-81
2023/04/10 13:10:50;;;;;;;1.80;0.75;;;17.90;71.10;;;;;;4946900;29;20742;-78
2023/04/10 13:13:16;;;;;;;3.38;0.93;;;17.90;71.50;;;;;;4956848;29;20035;-79
2023/04/10 13:15:42;;;;;;;2.05;1.23;;;18.10;71.40;;;;;;4958868;28;20395;-81
2023/04/10 13:18:09;;;;;;;2.80;1.35;;;18.10;71.00;;;;;;4955675;29;20035;-79
2023/04/10 13:20:38;;;;;;;3.42;1.80;;;18.10;70.50;;;;;;4958177;28;20034;-77
2023/04/10 13:23:05;;;;;;;1.60;1.08;;;18.20;70.70;;;;;;4955695;29;20388;-77
2023/04/10 13:25:36;;;;;;;2.10;0.90;;;18.40;70.70;;;;;;4959339;29;20027;-77
2023/04/10 13:28:02;;;;;;;2.72;0.80;;;18.60;69.30;;;;;;4942005;28;20044;-77
2023/04/10 13:30:28;;;;;;;2.45;0.80;;;18.60;68.60;;;;;;4940073;29;20175;-77
2023/04/10 13:32:54;;;;;;;2.42;1.00;;;18.70;68.80;;;;;;4942427;29;20020;-77
2023/04/10 13:35:20;;;;;;;2.05;0.77;;;18.70;68.10;;;;;;4958033;29;20142;-77
2023/04/10 13:37:46;;;;;;;2.22;0.60;;;18.80;68.20;;;;;;4938521;29;20032;-77
2023/04/10 13:40:12;;;;;;;2.85;1.10;;;18.80;67.60;;;;;;4941140;29;20031;-78
2023/04/10 13:42:37;;;;;;;3.30;1.23;;;18.80;67.70;;;;;;4958262;28;21311;-77
2023/04/10 13:45:03;;;;;;;3.88;1.33;;;18.80;67.40;;;;;;4941519;29;20035;-77
2023/04/10 13:47:29;;;;;;;1.83;0.90;;;18.80;67.20;;;;;;4940069;29;20028;-78
2023/04/10 13:49:54;;;;;;;3.60;1.20;;;19.00;67.10;;;;;;4938605;29;20035;-78
2023/04/10 13:52:20;;;;;;;5.30;1.50;;;19.10;67.10;;;;;;4939130;29;20376;-78
2023/04/10 13:54:46;;;;;;;1.35;0.73;;;19.20;65.70;;;;;;4941517;29;20518;-78
2023/04/10 13:57:11;;;;;;;1.70;1.10;;;19.00;65.40;;;;;;4957113;29;20055;-77
2023/04/10 13:59:37;;;;;;;1.83;0.90;;;19.10;65.60;;;;;;4946595;29;20063;-77
2023/04/10 14:02:02;;;;;;;4.25;1.27;;;19.00;65.30;;;;;;4955761;29;20023;-78
2023/04/10 14:04:28;;;;;;;3.47;1.58;;;18.80;65.80;;;;;;4950772;29;20038;-78
2023/04/10 14:06:57;;;;;;;3.30;1.02;;;18.80;66.20;;;;;;4946007;29;20031;-78
2023/04/10 14:09:23;;;;;;;3.58;1.33;;;18.90;65.60;;;;;;4957549;29;20023;-78
2023/04/10 14:11:49;;;;;;;3.72;1.60;;;18.90;65.10;;;;;;4946131;29;20033;-77
2023/04/10 14:14:14;;;;;;;6.03;1.40;;;18.80;64.50;;;;;;4959331;28;20051;-77
2023/04/10 14:16:40;;;;;;;4.65;1.92;;;18.80;63.40;;;;;;4952227;28;20047;-77
2023/04/10 14:19:06;;;;;;;4.78;1.70;;;18.80;63.00;;;;;;4948075;29;20074;-76
2023/04/10 14:21:31;;;;;;;4.03;1.33;;;18.80;63.60;;;;;;4952674;29;20634;-77
2023/04/10 14:23:58;;;;;;;4.45;1.50;;;18.80;62.40;;;;;;4955140;29;20114;-77
2023/04/10 14:26:24;;;;;;;5.30;1.60;;;18.80;61.60;;;;;;4949802;29;21996;-78
2023/04/10 14:28:51;;;;;;;1.77;1.20;;;19.00;61.30;;;;;;4938790;29;20042;-81
2023/04/10 14:31:16;;;;;;;3.17;1.40;;;19.00;60.90;;;;;;4950619;29;20494;-82
2023/04/10 14:33:42;;;;;;;6.93;2.22;;;19.10;60.50;;;;;;4957829;29;20082;-81
2023/04/10 14:36:08;;;;;;;3.30;1.38;;;19.20;60.60;;;;;;4947276;29;20031;-80
2023/04/10 14:38:35;;;;;;;4.82;1.95;;;19.20;60.30;;;;;;4945881;29;20139;-79
2023/04/10 14:41:01;;;;;;;6.60;1.90;;;19.30;59.70;;;;;;4935384;29;20027;-82
2023/04/10 14:43:27;;;;;;;5.10;1.55;;;19.30;59.70;;;;;;4955363;29;20038;-77
2023/04/10 14:45:52;;;;;;;3.53;1.42;;;19.30;59.50;;;;;;4940893;29;20038;-80
2023/04/10 14:48:19;;;;;;;7.60;2.25;;;19.40;59.80;;;;;;4955783;29;20038;-77
2023/04/10 14:50:48;;;;;;;4.57;1.63;;;19.40;59.50;;;;;;4957884;29;20030;-79
2023/04/10 14:53:14;;;;;;;6.95;2.55;;;19.40;59.60;;;;;;4954756;29;20795;-78
2023/04/10 14:55:40;;;;;;;6.60;1.92;;;19.30;59.20;;;;;;4938950;29;20035;-79
2023/04/10 14:58:07;;;;;;;8.55;2.25;;;19.30;59.90;;;;;;4935970;29;20410;-78
2023/04/10 15:00:33;;;;;;;6.75;1.83;;;19.30;60.40;;;;;;4956992;29;20054;-78
2023/04/10 15:02:59;;;;;;;9.23;2.30;;;19.30;60.40;;;;;;4951138;28;20043;-78
2023/04/10 15:05:26;;;;;;;9.32;2.67;;;19.30;60.50;;;;;;4938210;29;20111;-77
2023/04/10 15:07:51;;;;;;;7.57;1.98;;;19.30;60.10;;;;;;4950164;29;20031;-77
2023/04/10 15:10:17;;;;;;;8.90;2.97;;;19.30;60.10;;;;;;4953638;29;20038;-82
2023/04/10 15:12:43;;;;;;;8.75;2.65;;;19.30;59.90;;;;;;4950087;29;20439;-79
2023/04/10 15:15:09;;;;;;;5.75;2.00;;;19.40;60.10;;;;;;4968283;28;20392;-79
2023/04/10 15:17:34;;;;;;;5.85;1.90;;;19.50;58.60;;;;;;4962302;28;20113;-76
2023/04/10 15:20:00;;;;;;;6.63;1.73;;;19.50;58.70;;;;;;4952546;29;20058;-78
2023/04/10 15:22:28;;;;;;;4.68;1.50;;;19.50;58.90;;;;;;4955043;23;20283;-80
2023/04/10 15:24:53;;;;;;;5.53;1.77;;;19.50;57.70;;;;;;4945166;29;20019;-80
2023/04/10 15:27:21;;;;;;;6.55;1.63;;;19.30;57.70;;;;;;4936462;29;20035;-80
2023/04/10 15:29:47;;;;;;;8.02;1.75;;;19.30;58.10;;;;;;4935339;29;20499;-78
2023/04/10 15:32:13;;;;;;;3.58;1.40;;;19.20;58.10;;;;;;4937869;29;20053;-79
2023/04/10 15:34:39;;;;;;;9.98;1.90;;;19.00;58.40;;;;;;4937646;29;20395;-76
2023/04/10 15:37:04;;;;;;;8.20;2.25;;;18.90;58.40;;;;;;4937589;29;20118;-77
2023/04/10 15:39:30;;;;;;;6.10;1.60;;;19.10;58.40;;;;;;4938438;29;20126;-78
2023/04/10 15:41:58;;;;;;;5.72;1.77;;;19.30;58.00;;;;;;4937819;29;20102;-76
2023/04/10 15:44:25;;;;;;;5.97;1.20;;;19.30;57.00;;;;;;4935018;29;20075;-77
2023/04/10 15:46:51;;;;;;;5.70;2.30;;;19.30;57.10;;;;;;4936373;29;20031;-74
2023/04/10 15:49:17;;;;;;;4.30;1.15;;;19.30;56.60;;;;;;4937853;29;20032;-77
2023/04/10 15:51:43;;;;;;;3.42;1.40;;;19.40;56.50;;;;;;4938093;29;20051;-79
2023/04/10 15:54:09;;;;;;;6.25;1.55;;;19.40;56.30;;;;;;4925478;29;20035;-78
2023/04/10 15:56:35;;;;;;;6.90;1.85;;;19.50;55.80;;;;;;4919063;29;20083;-75
2023/04/10 15:59:01;;;;;;;4.50;1.75;;;19.20;56.30;;;;;;4919700;29;20040;-82
2023/04/10 16:01:27;;;;;;;4.28;1.77;;;19.10;57.10;;;;;;4937620;29;20036;-76
2023/04/10 16:03:54;;;;;;;6.47;1.77;;;19.10;57.40;;;;;;4938311;29;20083;-83
2023/04/10 16:06:24;;;;;;;6.57;2.17;;;18.90;57.30;;;;;;4939107;29;20496;-78
2023/04/10 16:08:51;;;;;;;6.72;1.67;;;18.90;57.90;;;;;;4939903;29;20036;-79
2023/04/10 16:11:17;;;;;;;5.00;1.70;;;19.00;57.50;;;;;;4939214;29;20051;-77
2023/04/10 16:13:42;;;;;;;5.18;2.15;;;19.10;57.20;;;;;;4939685;29;20020;-80
2023/04/10 16:16:14;;;;;;;5.13;1.35;;;19.10;57.00;;;;;;4960714;29;20034;-78
2023/04/10 16:18:39;;;;;;;5.35;1.50;;;19.10;57.10;;;;;;4948689;29;20088;-80
2023/04/10 16:21:07;;;;;;;6.22;1.65;;;19.10;57.60;;;;;;4945754;29;20478;-78
2023/04/10 16:23:33;;;;;;;7.22;1.60;;;19.00;57.80;;;;;;4943115;29;20039;-80
2023/04/10 16:25:58;;;;;;;4.07;1.30;;;19.00;58.40;;;;;;4934614;29;20589;-79
2023/04/10 16:28:24;;;;;;;3.00;1.83;;;18.90;58.80;;;;;;4935173;29;20056;-79
2023/04/10 16:30:50;;;;;;;4.72;1.45;;;18.90;58.90;;;;;;4949926;29;20050;-79
2023/04/10 16:33:16;;;;;;;4.15;1.58;;;18.80;59.10;;;;;;4960353;29;20027;-78
2023/04/10 16:35:41;;;;;;;7.20;1.60;;;18.80;59.10;;;;;;4960206;29;20085;-78
2023/04/10 16:38:07;;;;;;;5.90;1.77;;;18.60;59.00;;;;;;4950596;29;20042;-79
2023/04/10 16:40:32;;;;;;;6.00;1.80;;;18.50;59.10;;;;;;4945165;29;20029;-77
2023/04/10 16:42:59;;;;;;;9.75;1.85;;;18.40;58.70;;;;;;4949583;29;20031;-88
2023/04/10 16:45:25;;;;;;;8.32;2.88;;;18.50;58.90;;;;;;4957194;29;20693;-84
2023/04/10 16:47:51;;;;;;;6.03;2.22;;;18.50;58.50;;;;;;4943960;29;20042;-87
2023/04/10 16:50:17;;;;;;;9.07;2.33;;;18.70;58.40;;;;;;4943773;29;20035;-83
2023/04/10 16:52:42;;;;;;;5.00;2.33;;;18.70;58.30;;;;;;4950707;29;20106;-87
2023/04/10 16:55:10;;;;;;;7.15;2.40;;;18.60;58.60;;;;;;4956880;29;20025;-84
2023/04/10 16:57:36;;;;;;;7.82;2.13;;;18.50;59.40;;;;;;4957499;29;20030;-79
2023/04/10 17:00:02;;;;;;;5.05;2.38;;;18.40;60.00;;;;;;4935970;29;20398;-87
2023/04/10 17:02:29;;;;;;;9.07;2.95;;;18.30;60.80;;;;;;4912708;29;20039;-87
2023/04/10 17:04:55;;;;;;;5.07;1.92;;;18.30;61.00;;;;;;4929152;29;20024;-80
2023/04/10 17:07:21;;;;;;;5.70;2.10;;;18.30;61.40;;;;;;4956590;29;20047;-90
2023/04/10 17:09:47;;;;;;;4.78;1.45;;;18.30;61.00;;;;;;4930196;29;20079;-88
2023/04/10 17:12:13;;;;;;;6.90;2.03;;;18.30;60.70;;;;;;4946915;29;20031;-88
2023/04/10 17:14:38;;;;;;;8.68;2.75;;;18.20;58.30;;;;;;4941643;29;20020;-78
2023/04/10 17:17:04;;;;;;;7.68;1.75;;;18.20;57.30;;;;;;4940150;29;20039;-89